sensor_id;sensor_type;location;lat;lon;timestamp;pressure;altitude;pressure_sealevel;temperature;humidity
72118;BME280;59992;47.490;8.736;2023-07-13T00:00:55;96699.19;;;16.82;100.00
72118;BME280;59992;47.490;8.736;2023-07-13T00:03:46;96696.96;;;16.82;100.00
72118;BME280;59992;47.490;8.736;2023-07-13T00:06:36;96690.47;;;16.81;100.00
72118;BME280;59992;47.490;8.736;2023-07-13T00:09:26;96681.63;;;16.78;100.00
72118;BME280;59992;47.490;8.736;2023-07-13T00:12:28;96684.02;;;16.76;100.00
72118;BME280;59992;47.490;8.736;2023-07-13T00:15:20;96682.97;;;16.73;100.00
72118;BME280;59992;47.490;8.736;2023-07-13T00:18:11;96680.13;;;16.74;100.00
72118;BME280;59992;47.490;8.736;2023-07-13T00:21:01;96674.63;;;16.74;100.00
72118;BME280;59992;47.490;8.736;2023-07-13T00:23:54;96668.06;;;16.73;100.00
72118;BME280;59992;47.490;8.736;2023-07-13T00:26:44;96667.09;;;16.71;100.00
72118;BME280;59992;47.490;8.736;2023-07-13T00:29:34;96670.92;;;16.69;100.00
72118;BME280;59992;47.490;8.736;2023-07-13T00:32:25;96666.33;;;16.69;100.00
72118;BME280;59992;47.490;8.736;2023-07-13T00:35:16;96661.29;;;16.69;100.00
72118;BME280;59992;47.490;8.736;2023-07-13T00:38:06;96660.77;;;16.67;100.00
72118;BME280;59992;47.490;8.736;2023-07-13T00:40:56;96659.99;;;16.68;100.00
72118;BME280;59992;47.490;8.736;2023-07-13T00:43:47;96656.89;;;16.64;100.00
72118;BME280;59992;47.490;8.736;2023-07-13T00:46:37;96655.77;;;16.61;100.00
72118;BME280;59992;47.490;8.736;2023-07-13T00:49:29;96657.85;;;16.60;100.00
72118;BME280;59992;47.490;8.736;2023-07-13T00:52:20;96659.39;;;16.59;100.00
72118;BME280;59992;47.490;8.736;2023-07-13T00:55:10;96654.34;;;16.60;100.00
72118;BME280;59992;47.490;8.736;2023-07-13T00:58:02;96648.54;;;16.59;100.00
72118;BME280;59992;47.490;8.736;2023-07-13T01:00:54;96650.23;;;16.57;100.00
72118;BME280;59992;47.490;8.736;2023-07-13T01:03:44;96659.66;;;16.55;100.00
72118;BME280;59992;47.490;8.736;2023-07-13T01:06:35;96659.83;;;16.53;100.00
72118;BME280;59992;47.490;8.736;2023-07-13T01:09:27;96655.70;;;16.52;100.00
72118;BME280;59992;47.490;8.736;2023-07-13T01:12:17;96660.08;;;16.52;100.00
72118;BME280;59992;47.490;8.736;2023-07-13T01:15:35;96653.44;;;16.48;100.00
72118;BME280;59992;47.490;8.736;2023-07-13T01:18:27;96653.45;;;16.44;100.00
72118;BME280;59992;47.490;8.736;2023-07-13T01:21:19;96646.39;;;16.39;100.00
72118;BME280;59992;47.490;8.736;2023-07-13T01:24:09;96649.07;;;16.38;100.00
72118;BME280;59992;47.490;8.736;2023-07-13T01:26:59;96646.56;;;16.37;100.00
72118;BME280;59992;47.490;8.736;2023-07-13T01:29:49;96651.88;;;16.32;100.00
72118;BME280;59992;47.490;8.736;2023-07-13T01:32:41;96651.29;;;16.28;100.00
72118;BME280;59992;47.490;8.736;2023-07-13T01:35:31;96649.41;;;16.25;100.00
72118;BME280;59992;47.490;8.736;2023-07-13T01:38:23;96655.77;;;16.21;100.00
72118;BME280;59992;47.490;8.736;2023-07-13T01:41:14;96654.95;;;16.20;100.00
72118;BME280;59992;47.490;8.736;2023-07-13T01:44:04;96658.08;;;16.20;100.00
72118;BME280;59992;47.490;8.736;2023-07-13T01:46:54;96659.79;;;16.17;100.00
72118;BME280;59992;47.490;8.736;2023-07-13T01:49:45;96673.98;;;16.18;100.00
72118;BME280;59992;47.490;8.736;2023-07-13T01:52:36;96680.11;;;16.15;100.00
72118;BME280;59992;47.490;8.736;2023-07-13T01:55:27;96672.41;;;16.14;100.00
72118;BME280;59992;47.490;8.736;2023-07-13T01:58:17;96670.67;;;16.12;100.00
72118;BME280;59992;47.490;8.736;2023-07-13T02:01:07;96675.02;;;16.12;100.00
72118;BME280;59992;47.490;8.736;2023-07-13T02:03:57;96676.62;;;16.14;100.00
72118;BME280;59992;47.490;8.736;2023-07-13T02:06:47;96677.44;;;16.16;100.00
72118;BME280;59992;47.490;8.736;2023-07-13T02:09:38;96674.16;;;16.15;100.00
72118;BME280;59992;47.490;8.736;2023-07-13T02:12:28;96677.34;;;16.19;100.00
72118;BME280;59992;47.490;8.736;2023-07-13T02:15:19;96680.09;;;16.18;100.00
72118;BME280;59992;47.490;8.736;2023-07-13T02:18:09;96678.59;;;16.16;100.00
72118;BME280;59992;47.490;8.736;2023-07-13T02:21:00;96681.49;;;16.14;100.00
72118;BME280;59992;47.490;8.736;2023-07-13T02:23:50;96685.41;;;16.14;100.00
72118;BME280;59992;47.490;8.736;2023-07-13T02:26:41;96680.13;;;16.15;100.00
72118;BME280;59992;47.490;8.736;2023-07-13T02:29:31;96685.30;;;16.18;100.00
72118;BME280;59992;47.490;8.736;2023-07-13T02:32:21;96680.93;;;16.19;100.00
72118;BME280;59992;47.490;8.736;2023-07-13T02:35:13;96682.63;;;16.19;100.00
72118;BME280;59992;47.490;8.736;2023-07-13T02:38:03;96686.42;;;16.20;100.00
72118;BME280;59992;47.490;8.736;2023-07-13T02:40:54;96684.59;;;16.22;100.00
72118;BME280;59992;47.490;8.736;2023-07-13T02:43:44;96681.98;;;16.22;100.00
72118;BME280;59992;47.490;8.736;2023-07-13T02:46:35;96680.29;;;16.24;100.00
72118;BME280;59992;47.490;8.736;2023-07-13T02:49:26;96681.95;;;16.27;100.00
72118;BME280;59992;47.490;8.736;2023-07-13T02:52:16;96676.04;;;16.29;100.00
72118;BME280;59992;47.490;8.736;2023-07-13T02:55:08;96675.34;;;16.31;100.00
72118;BME280;59992;47.490;8.736;2023-07-13T02:57:58;96673.13;;;16.31;100.00
72118;BME280;59992;47.490;8.736;2023-07-13T03:00:48;96671.23;;;16.29;100.00
72118;BME280;59992;47.490;8.736;2023-07-13T03:03:39;96673.08;;;16.28;100.00
72118;BME280;59992;47.490;8.736;2023-07-13T03:06:29;96667.56;;;16.28;100.00
72118;BME280;59992;47.490;8.736;2023-07-13T03:09:20;96656.88;;;16.28;100.00
72118;BME280;59992;47.490;8.736;2023-07-13T03:12:10;96654.73;;;16.29;100.00
72118;BME280;59992;47.490;8.736;2023-07-13T03:15:01;96657.61;;;16.32;100.00
72118;BME280;59992;47.490;8.736;2023-07-13T03:17:51;96665.48;;;16.31;100.00
72118;BME280;59992;47.490;8.736;2023-07-13T03:20:42;96670.07;;;16.32;100.00
72118;BME280;59992;47.490;8.736;2023-07-13T03:23:33;96675.02;;;16.33;100.00
72118;BME280;59992;47.490;8.736;2023-07-13T03:26:23;96673.05;;;16.32;100.00
72118;BME280;59992;47.490;8.736;2023-07-13T03:29:13;96677.95;;;16.31;100.00
72118;BME280;59992;47.490;8.736;2023-07-13T03:32:03;96680.64;;;16.28;100.00
72118;BME280;59992;47.490;8.736;2023-07-13T03:34:54;96686.06;;;16.27;100.00
72118;BME280;59992;47.490;8.736;2023-07-13T03:37:44;96686.45;;;16.26;100.00
72118;BME280;59992;47.490;8.736;2023-07-13T03:40:34;96692.19;;;16.28;100.00
72118;BME280;59992;47.490;8.736;2023-07-13T03:43:24;96685.38;;;16.26;100.00
72118;BME280;59992;47.490;8.736;2023-07-13T03:46:14;96688.29;;;16.28;100.00
72118;BME280;59992;47.490;8.736;2023-07-13T03:49:06;96690.48;;;16.30;100.00
72118;BME280;59992;47.490;8.736;2023-07-13T03:51:56;96693.06;;;16.35;100.00
72118;BME280;59992;47.490;8.736;2023-07-13T03:54:46;96693.78;;;16.38;100.00
72118;BME280;59992;47.490;8.736;2023-07-13T03:57:36;96693.47;;;16.40;100.00
72118;BME280;59992;47.490;8.736;2023-07-13T04:00:26;96699.43;;;16.40;100.00
72118;BME280;59992;47.490;8.736;2023-07-13T04:03:16;96699.29;;;16.38;100.00
72118;BME280;59992;47.490;8.736;2023-07-13T04:06:08;96699.52;;;16.39;100.00
72118;BME280;59992;47.490;8.736;2023-07-13T04:09:07;96699.75;;;16.38;100.00
72118;BME280;59992;47.490;8.736;2023-07-13T04:11:58;96699.14;;;16.39;100.00
72118;BME280;59992;47.490;8.736;2023-07-13T04:14:49;96700.51;;;16.38;100.00
72118;BME280;59992;47.490;8.736;2023-07-13T04:17:39;96704.01;;;16.41;100.00
72118;BME280;59992;47.490;8.736;2023-07-13T04:20:29;96703.70;;;16.43;100.00
72118;BME280;59992;47.490;8.736;2023-07-13T04:23:20;96709.79;;;16.46;100.00
72118;BME280;59992;47.490;8.736;2023-07-13T04:26:10;96715.90;;;16.49;100.00
72118;BME280;59992;47.490;8.736;2023-07-13T04:29:01;96716.73;;;16.51;100.00
72118;BME280;59992;47.490;8.736;2023-07-13T04:31:57;96716.41;;;16.54;100.00
72118;BME280;59992;47.490;8.736;2023-07-13T04:34:47;96716.37;;;16.59;100.00
72118;BME280;59992;47.490;8.736;2023-07-13T04:37:43;96717.23;;;16.64;100.00
72118;BME280;59992;47.490;8.736;2023-07-13T04:40:33;96722.73;;;16.75;100.00
72118;BME280;59992;47.490;8.736;2023-07-13T04:43:24;96722.88;;;16.85;100.00
72118;BME280;59992;47.490;8.736;2023-07-13T04:46:17;96723.58;;;16.91;100.00
72118;BME280;59992;47.490;8.736;2023-07-13T04:49:08;96726.23;;;16.94;100.00
72118;BME280;59992;47.490;8.736;2023-07-13T04:51:59;96727.59;;;16.96;100.00
72118;BME280;59992;47.490;8.736;2023-07-13T04:54:49;96726.52;;;16.96;100.00
72118;BME280;59992;47.490;8.736;2023-07-13T04:57:39;96733.27;;;16.95;100.00
72118;BME280;59992;47.490;8.736;2023-07-13T05:00:29;96741.42;;;16.97;100.00
72118;BME280;59992;47.490;8.736;2023-07-13T05:03:19;96748.19;;;17.02;100.00
72118;BME280;59992;47.490;8.736;2023-07-13T05:06:10;96752.89;;;17.07;100.00
72118;BME280;59992;47.490;8.736;2023-07-13T05:09:02;96753.86;;;17.10;100.00
72118;BME280;59992;47.490;8.736;2023-07-13T05:11:52;96761.73;;;17.11;100.00
72118;BME280;59992;47.490;8.736;2023-07-13T05:14:43;96767.13;;;17.14;100.00
72118;BME280;59992;47.490;8.736;2023-07-13T05:17:33;96773.33;;;17.15;100.00
72118;BME280;59992;47.490;8.736;2023-07-13T05:20:23;96772.48;;;17.15;100.00
72118;BME280;59992;47.490;8.736;2023-07-13T05:23:13;96772.03;;;17.15;100.00
72118;BME280;59992;47.490;8.736;2023-07-13T05:26:04;96771.02;;;17.16;100.00
72118;BME280;59992;47.490;8.736;2023-07-13T05:28:54;96769.23;;;17.19;100.00
72118;BME280;59992;47.490;8.736;2023-07-13T05:31:45;96768.90;;;17.22;100.00
72118;BME280;59992;47.490;8.736;2023-07-13T05:34:35;96772.98;;;17.26;100.00
72118;BME280;59992;47.490;8.736;2023-07-13T05:37:26;96778.72;;;17.27;100.00
72118;BME280;59992;47.490;8.736;2023-07-13T05:40:16;96777.50;;;17.26;100.00
72118;BME280;59992;47.490;8.736;2023-07-13T05:43:06;96781.12;;;17.25;100.00
72118;BME280;59992;47.490;8.736;2023-07-13T05:45:57;96785.80;;;17.24;100.00
72118;BME280;59992;47.490;8.736;2023-07-13T05:48:48;96790.16;;;17.24;100.00
72118;BME280;59992;47.490;8.736;2023-07-13T05:51:38;96790.61;;;17.25;100.00
72118;BME280;59992;47.490;8.736;2023-07-13T05:54:28;96793.75;;;17.25;100.00
72118;BME280;59992;47.490;8.736;2023-07-13T05:57:18;96792.83;;;17.26;100.00
72118;BME280;59992;47.490;8.736;2023-07-13T06:00:11;96787.75;;;17.28;100.00
72118;BME280;59992;47.490;8.736;2023-07-13T06:03:01;96794.88;;;17.28;100.00
72118;BME280;59992;47.490;8.736;2023-07-13T06:05:51;96798.15;;;17.30;100.00
72118;BME280;59992;47.490;8.736;2023-07-13T06:08:41;96802.48;;;17.31;100.00
72118;BME280;59992;47.490;8.736;2023-07-13T06:11:31;96807.91;;;17.33;100.00
72118;BME280;59992;47.490;8.736;2023-07-13T06:14:21;96810.59;;;17.33;100.00
72118;BME280;59992;47.490;8.736;2023-07-13T06:17:11;96814.26;;;17.34;100.00
72118;BME280;59992;47.490;8.736;2023-07-13T06:20:01;96813.55;;;17.36;100.00
72118;BME280;59992;47.490;8.736;2023-07-13T06:22:52;96818.81;;;17.37;100.00
72118;BME280;59992;47.490;8.736;2023-07-13T06:25:42;96822.27;;;17.38;100.00
72118;BME280;59992;47.490;8.736;2023-07-13T06:28:33;96828.23;;;17.37;100.00
72118;BME280;59992;47.490;8.736;2023-07-13T06:31:23;96829.11;;;17.41;100.00
72118;BME280;59992;47.490;8.736;2023-07-13T06:34:13;96830.76;;;17.46;100.00
72118;BME280;59992;47.490;8.736;2023-07-13T06:37:04;96837.30;;;17.54;100.00
72118;BME280;59992;47.490;8.736;2023-07-13T06:39:54;96839.29;;;17.61;100.00
72118;BME280;59992;47.490;8.736;2023-07-13T06:42:44;96842.07;;;17.67;100.00
72118;BME280;59992;47.490;8.736;2023-07-13T06:45:40;96845.46;;;17.72;100.00
72118;BME280;59992;47.490;8.736;2023-07-13T06:48:30;96851.42;;;17.81;100.00
72118;BME280;59992;47.490;8.736;2023-07-13T06:51:20;96855.61;;;17.89;100.00
72118;BME280;59992;47.490;8.736;2023-07-13T06:54:10;96853.84;;;17.97;100.00
72118;BME280;59992;47.490;8.736;2023-07-13T06:57:00;96849.86;;;18.04;100.00
72118;BME280;59992;47.490;8.736;2023-07-13T06:59:50;96854.14;;;18.11;100.00
72118;BME280;59992;47.490;8.736;2023-07-13T07:02:41;96860.45;;;18.15;100.00
72118;BME280;59992;47.490;8.736;2023-07-13T07:05:31;96861.60;;;18.22;100.00
72118;BME280;59992;47.490;8.736;2023-07-13T07:08:21;96864.89;;;18.28;100.00
72118;BME280;59992;47.490;8.736;2023-07-13T07:11:14;96867.88;;;18.35;100.00
72118;BME280;59992;47.490;8.736;2023-07-13T07:14:04;96864.60;;;18.41;100.00
72118;BME280;59992;47.490;8.736;2023-07-13T07:16:54;96869.33;;;18.50;100.00
72118;BME280;59992;47.490;8.736;2023-07-13T07:19:44;96869.20;;;18.54;100.00
72118;BME280;59992;47.490;8.736;2023-07-13T07:22:34;96870.30;;;18.63;100.00
72118;BME280;59992;47.490;8.736;2023-07-13T07:25:25;96868.48;;;18.77;100.00
72118;BME280;59992;47.490;8.736;2023-07-13T07:28:16;96860.00;;;18.96;100.00
72118;BME280;59992;47.490;8.736;2023-07-13T07:31:06;96864.15;;;19.20;100.00
72118;BME280;59992;47.490;8.736;2023-07-13T07:33:56;96866.76;;;19.45;100.00
72118;BME280;59992;47.490;8.736;2023-07-13T07:36:46;96868.23;;;19.62;100.00
72118;BME280;59992;47.490;8.736;2023-07-13T07:39:37;96866.45;;;19.79;100.00
72118;BME280;59992;47.490;8.736;2023-07-13T07:42:27;96863.77;;;19.92;100.00
72118;BME280;59992;47.490;8.736;2023-07-13T07:45:18;96865.63;;;19.95;100.00
72118;BME280;59992;47.490;8.736;2023-07-13T07:48:08;96867.59;;;20.04;100.00
72118;BME280;59992;47.490;8.736;2023-07-13T07:50:58;96869.05;;;20.09;100.00
72118;BME280;59992;47.490;8.736;2023-07-13T07:53:48;96876.11;;;20.13;98.80
72118;BME280;59992;47.490;8.736;2023-07-13T07:56:38;96876.04;;;20.22;95.29
72118;BME280;59992;47.490;8.736;2023-07-13T07:59:28;96869.16;;;20.39;96.62
72118;BME280;59992;47.490;8.736;2023-07-13T08:02:18;96856.44;;;20.55;93.45
72118;BME280;59992;47.490;8.736;2023-07-13T08:05:09;96849.98;;;20.54;87.29
72118;BME280;59992;47.490;8.736;2023-07-13T08:07:59;96856.24;;;20.88;92.31
72118;BME280;59992;47.490;8.736;2023-07-13T08:10:49;96861.02;;;21.52;89.69
72118;BME280;59992;47.490;8.736;2023-07-13T08:13:40;96870.17;;;21.87;84.34
72118;BME280;59992;47.490;8.736;2023-07-13T08:16:30;96869.22;;;21.94;80.38
72118;BME280;59992;47.490;8.736;2023-07-13T08:19:21;96865.77;;;22.05;82.26
72118;BME280;59992;47.490;8.736;2023-07-13T08:22:11;96863.93;;;22.12;81.96
72118;BME280;59992;47.490;8.736;2023-07-13T08:25:02;96859.73;;;22.43;81.90
72118;BME280;59992;47.490;8.736;2023-07-13T08:27:52;96860.82;;;23.00;80.18
72118;BME280;59992;47.490;8.736;2023-07-13T08:30:42;96858.03;;;23.40;75.78
72118;BME280;59992;47.490;8.736;2023-07-13T08:33:33;96861.30;;;23.75;71.77
72118;BME280;59992;47.490;8.736;2023-07-13T08:36:24;96867.73;;;24.08;75.55
72118;BME280;59992;47.490;8.736;2023-07-13T08:39:15;96873.88;;;24.78;77.47
72118;BME280;59992;47.490;8.736;2023-07-13T08:42:09;96870.66;;;25.01;68.87
72118;BME280;59992;47.490;8.736;2023-07-13T08:45:11;96874.11;;;24.80;68.90
72118;BME280;59992;47.490;8.736;2023-07-13T08:48:04;96875.99;;;24.48;67.77
72118;BME280;59992;47.490;8.736;2023-07-13T08:51:00;96873.70;;;24.15;68.57
72118;BME280;59992;47.490;8.736;2023-07-13T08:53:53;96879.02;;;23.91;72.13
72118;BME280;59992;47.490;8.736;2023-07-13T08:56:46;96878.66;;;23.44;68.00
72118;BME280;59992;47.490;8.736;2023-07-13T08:59:36;96877.83;;;22.99;71.16
72118;BME280;59992;47.490;8.736;2023-07-13T09:02:33;96877.70;;;22.63;74.20
72118;BME280;59992;47.490;8.736;2023-07-13T09:05:29;96879.30;;;22.28;74.86
72118;BME280;59992;47.490;8.736;2023-07-13T09:08:33;96874.95;;;22.21;77.26
72118;BME280;59992;47.490;8.736;2023-07-13T09:11:41;96869.36;;;22.49;79.33
72118;BME280;59992;47.490;8.736;2023-07-13T09:14:42;96873.35;;;23.11;73.32
72118;BME280;59992;47.490;8.736;2023-07-13T09:17:38;96874.38;;;23.66;72.61
72118;BME280;59992;47.490;8.736;2023-07-13T09:20:34;96875.67;;;23.55;69.72
72118;BME280;59992;47.490;8.736;2023-07-13T09:23:28;96871.17;;;23.44;71.43
72118;BME280;59992;47.490;8.736;2023-07-13T09:26:21;96873.04;;;23.63;73.44
72118;BME280;59992;47.490;8.736;2023-07-13T09:29:22;96873.13;;;24.22;72.94
72118;BME280;59992;47.490;8.736;2023-07-13T09:32:15;96870.91;;;24.47;70.39
72118;BME280;59992;47.490;8.736;2023-07-13T09:35:12;96867.55;;;24.38;66.96
72118;BME280;59992;47.490;8.736;2023-07-13T09:38:12;96871.87;;;24.10;66.58
72118;BME280;59992;47.490;8.736;2023-07-13T09:41:08;96875.94;;;23.90;68.05
72118;BME280;59992;47.490;8.736;2023-07-13T09:44:09;96876.81;;;23.85;69.54
72118;BME280;59992;47.490;8.736;2023-07-13T09:47:00;96873.33;;;23.90;70.37
72118;BME280;59992;47.490;8.736;2023-07-13T09:49:55;96874.95;;;24.03;69.96
72118;BME280;59992;47.490;8.736;2023-07-13T09:52:48;96877.25;;;24.20;67.83
72118;BME280;59992;47.490;8.736;2023-07-13T09:55:40;96877.89;;;24.22;67.14
72118;BME280;59992;47.490;8.736;2023-07-13T09:58:32;96879.86;;;24.07;67.25
72118;BME280;59992;47.490;8.736;2023-07-13T10:01:35;96883.40;;;24.01;68.69
72118;BME280;59992;47.490;8.736;2023-07-13T10:04:33;96887.48;;;23.73;66.56
72118;BME280;59992;47.490;8.736;2023-07-13T10:07:24;96883.27;;;23.57;71.79
72118;BME280;59992;47.490;8.736;2023-07-13T10:10:17;96888.61;;;23.46;70.96
72118;BME280;59992;47.490;8.736;2023-07-13T10:13:29;96887.90;;;23.28;70.45
72118;BME280;59992;47.490;8.736;2023-07-13T10:16:21;96887.91;;;23.13;73.61
72118;BME280;59992;47.490;8.736;2023-07-13T10:19:17;96889.13;;;22.86;70.35
72118;BME280;59992;47.490;8.736;2023-07-13T10:22:22;96895.60;;;22.61;72.14
72118;BME280;59992;47.490;8.736;2023-07-13T10:25:19;96897.84;;;22.41;74.66
72118;BME280;59992;47.490;8.736;2023-07-13T10:28:20;96898.70;;;22.30;78.14
72118;BME280;59992;47.490;8.736;2023-07-13T10:31:14;96896.84;;;22.13;74.34
72118;BME280;59992;47.490;8.736;2023-07-13T10:34:07;96895.47;;;22.10;76.53
72118;BME280;59992;47.490;8.736;2023-07-13T10:36:58;96894.19;;;22.20;79.14
72118;BME280;59992;47.490;8.736;2023-07-13T10:39:48;96898.55;;;22.29;79.18
72118;BME280;59992;47.490;8.736;2023-07-13T10:42:43;96898.46;;;22.41;76.80
72118;BME280;59992;47.490;8.736;2023-07-13T10:45:36;96902.66;;;22.34;73.62
72118;BME280;59992;47.490;8.736;2023-07-13T10:48:27;96901.60;;;22.44;74.09
72118;BME280;59992;47.490;8.736;2023-07-13T10:51:19;96902.14;;;22.44;71.06
72118;BME280;59992;47.490;8.736;2023-07-13T10:54:17;96908.20;;;22.61;75.41
72118;BME280;59992;47.490;8.736;2023-07-13T10:57:20;96901.66;;;22.73;73.93
72118;BME280;59992;47.490;8.736;2023-07-13T11:00:18;96899.90;;;22.95;73.49
72118;BME280;59992;47.490;8.736;2023-07-13T11:03:15;96898.22;;;23.22;71.87
72118;BME280;59992;47.490;8.736;2023-07-13T11:06:10;96901.09;;;23.56;71.73
72118;BME280;59992;47.490;8.736;2023-07-13T11:09:19;96897.19;;;23.87;67.76
72118;BME280;59992;47.490;8.736;2023-07-13T11:12:26;96891.64;;;23.98;67.13
72118;BME280;59992;47.490;8.736;2023-07-13T11:15:30;96884.19;;;24.10;64.73
72118;BME280;59992;47.490;8.736;2023-07-13T11:18:24;96881.69;;;24.03;64.76
72118;BME280;59992;47.490;8.736;2023-07-13T11:21:16;96881.55;;;23.76;62.26
72118;BME280;59992;47.490;8.736;2023-07-13T11:24:16;96880.27;;;23.77;65.99
72118;BME280;59992;47.490;8.736;2023-07-13T11:27:24;96882.30;;;23.90;68.37
72118;BME280;59992;47.490;8.736;2023-07-13T11:30:37;96882.89;;;24.00;65.97
72118;BME280;59992;47.490;8.736;2023-07-13T11:33:55;96879.90;;;24.13;70.27
72118;BME280;59992;47.490;8.736;2023-07-13T11:36:47;96877.42;;;24.32;68.25
72118;BME280;59992;47.490;8.736;2023-07-13T11:39:40;96871.21;;;24.41;66.28
72118;BME280;59992;47.490;8.736;2023-07-13T11:42:32;96869.75;;;24.49;63.99
72118;BME280;59992;47.490;8.736;2023-07-13T11:45:23;96870.08;;;24.61;67.00
72118;BME280;59992;47.490;8.736;2023-07-13T11:48:22;96866.79;;;24.60;62.71
72118;BME280;59992;47.490;8.736;2023-07-13T11:51:19;96867.40;;;24.60;61.87
72118;BME280;59992;47.490;8.736;2023-07-13T11:54:22;96865.91;;;24.53;61.56
72118;BME280;59992;47.490;8.736;2023-07-13T11:57:23;96863.48;;;24.72;62.22
72118;BME280;59992;47.490;8.736;2023-07-13T12:00:17;96853.92;;;24.87;67.46
72118;BME280;59992;47.490;8.736;2023-07-13T12:03:10;96852.98;;;25.03;61.21
72118;BME280;59992;47.490;8.736;2023-07-13T12:06:03;96848.17;;;25.21;60.25
72118;BME280;59992;47.490;8.736;2023-07-13T12:08:57;96842.08;;;25.39;61.40
72118;BME280;59992;47.490;8.736;2023-07-13T12:11:48;96847.56;;;25.53;61.56
72118;BME280;59992;47.490;8.736;2023-07-13T12:14:38;96859.02;;;25.42;60.26
72118;BME280;59992;47.490;8.736;2023-07-13T12:17:28;96860.23;;;25.35;57.91
72118;BME280;59992;47.490;8.736;2023-07-13T12:20:25;96860.18;;;25.21;58.34
72118;BME280;59992;47.490;8.736;2023-07-13T12:23:22;96857.58;;;24.98;60.89
72118;BME280;59992;47.490;8.736;2023-07-13T12:26:14;96857.20;;;24.92;64.72
72118;BME280;59992;47.490;8.736;2023-07-13T12:29:07;96853.14;;;24.83;64.85
72118;BME280;59992;47.490;8.736;2023-07-13T12:31:57;96849.67;;;24.79;64.17
72118;BME280;59992;47.490;8.736;2023-07-13T12:35:12;96849.10;;;24.75;64.20
72118;BME280;59992;47.490;8.736;2023-07-13T12:38:04;96847.83;;;24.70;65.16
72118;BME280;59992;47.490;8.736;2023-07-13T12:40:58;96838.79;;;24.65;64.13
72118;BME280;59992;47.490;8.736;2023-07-13T12:43:51;96836.48;;;24.57;65.39
72118;BME280;59992;47.490;8.736;2023-07-13T12:46:53;96830.46;;;24.52;74.23
72118;BME280;59992;47.490;8.736;2023-07-13T12:49:48;96834.86;;;24.46;70.41
72118;BME280;59992;47.490;8.736;2023-07-13T12:52:38;96833.40;;;24.29;61.89
72118;BME280;59992;47.490;8.736;2023-07-13T12:55:29;96835.86;;;24.21;61.91
72118;BME280;59992;47.490;8.736;2023-07-13T12:58:24;96839.92;;;24.16;63.85
72118;BME280;59992;47.490;8.736;2023-07-13T13:01:15;96841.61;;;24.12;63.98
72118;BME280;59992;47.490;8.736;2023-07-13T13:04:08;96836.32;;;24.04;63.85
72118;BME280;59992;47.490;8.736;2023-07-13T13:07:05;96838.88;;;24.02;63.49
72118;BME280;59992;47.490;8.736;2023-07-13T13:09:58;96839.00;;;24.03;59.82
72118;BME280;59992;47.490;8.736;2023-07-13T13:12:49;96832.71;;;24.01;59.51
72118;BME280;59992;47.490;8.736;2023-07-13T13:15:40;96830.65;;;24.07;62.45
72118;BME280;59992;47.490;8.736;2023-07-13T13:18:31;96831.02;;;24.16;64.58
72118;BME280;59992;47.490;8.736;2023-07-13T13:21:24;96829.73;;;24.18;65.70
72118;BME280;59992;47.490;8.736;2023-07-13T13:24:16;96833.16;;;24.17;66.40
72118;BME280;59992;47.490;8.736;2023-07-13T13:27:16;96833.17;;;24.12;64.20
72118;BME280;59992;47.490;8.736;2023-07-13T13:30:12;96828.81;;;24.09;61.34
72118;BME280;59992;47.490;8.736;2023-07-13T13:33:04;96827.48;;;23.98;59.44
72118;BME280;59992;47.490;8.736;2023-07-13T13:35:56;96824.75;;;23.96;58.68
72118;BME280;59992;47.490;8.736;2023-07-13T13:38:47;96821.02;;;23.96;59.75
72118;BME280;59992;47.490;8.736;2023-07-13T13:41:37;96821.89;;;23.94;58.80
72118;BME280;59992;47.490;8.736;2023-07-13T13:44:27;96823.15;;;23.93;61.96
72118;BME280;59992;47.490;8.736;2023-07-13T13:47:29;96825.83;;;23.88;63.77
72118;BME280;59992;47.490;8.736;2023-07-13T13:50:22;96824.23;;;23.89;64.39
72118;BME280;59992;47.490;8.736;2023-07-13T13:53:14;96823.66;;;23.90;67.25
72118;BME280;59992;47.490;8.736;2023-07-13T13:56:04;96826.60;;;23.81;66.93
72118;BME280;59992;47.490;8.736;2023-07-13T13:58:55;96830.92;;;23.70;68.48
72118;BME280;59992;47.490;8.736;2023-07-13T14:01:46;96831.23;;;23.57;66.08
72118;BME280;59992;47.490;8.736;2023-07-13T14:04:38;96830.70;;;23.57;67.03
72118;BME280;59992;47.490;8.736;2023-07-13T14:07:28;96825.35;;;23.64;64.43
72118;BME280;59992;47.490;8.736;2023-07-13T14:10:20;96826.27;;;23.70;60.56
72118;BME280;59992;47.490;8.736;2023-07-13T14:13:17;96817.43;;;23.78;59.71
72118;BME280;59992;47.490;8.736;2023-07-13T14:16:12;96818.43;;;23.89;62.40
72118;BME280;59992;47.490;8.736;2023-07-13T14:19:07;96823.70;;;24.00;66.31
72118;BME280;59992;47.490;8.736;2023-07-13T14:21:59;96830.76;;;23.99;61.25
72118;BME280;59992;47.490;8.736;2023-07-13T14:24:49;96830.36;;;23.99;59.07
72118;BME280;59992;47.490;8.736;2023-07-13T14:27:40;96833.05;;;23.96;60.31
72118;BME280;59992;47.490;8.736;2023-07-13T14:30:30;96836.94;;;24.02;62.90
72118;BME280;59992;47.490;8.736;2023-07-13T14:33:21;96831.03;;;24.14;68.07
72118;BME280;59992;47.490;8.736;2023-07-13T14:36:25;96833.33;;;24.21;63.15
72118;BME280;59992;47.490;8.736;2023-07-13T14:39:19;96833.08;;;24.32;60.54
72118;BME280;59992;47.490;8.736;2023-07-13T14:42:11;96826.83;;;24.43;62.66
72118;BME280;59992;47.490;8.736;2023-07-13T14:45:01;96826.36;;;24.52;61.57
72118;BME280;59992;47.490;8.736;2023-07-13T14:47:51;96821.08;;;24.54;62.19
72118;BME280;59992;47.490;8.736;2023-07-13T14:50:41;96828.11;;;24.59;61.98
72118;BME280;59992;47.490;8.736;2023-07-13T14:53:32;96832.75;;;24.51;57.50
72118;BME280;59992;47.490;8.736;2023-07-13T14:56:24;96830.89;;;24.47;55.39
72118;BME280;59992;47.490;8.736;2023-07-13T14:59:15;96827.59;;;24.48;56.10
72118;BME280;59992;47.490;8.736;2023-07-13T15:02:19;96835.41;;;24.48;58.71
72118;BME280;59992;47.490;8.736;2023-07-13T15:05:21;96834.94;;;24.50;60.28
72118;BME280;59992;47.490;8.736;2023-07-13T15:08:11;96828.60;;;24.46;58.57